Airport View

Enter AWOS ICAO identifier for current METAR.

ex. KFNL

KGRD 262256Z AUTO 23005KT 10SM OVC110 10/00 A2999 RMK AO2 SLP158 T01000000

26 Jan 2020 23:39

Frequency: 121.125

Phone: 864-388-9115

Other Area AWOS: KLUX - KEOE - KAND - KGYH

TAF AMD KAND 262042Z 2621/2718 24008KT P6SM SCT060 BKN120 FM270100 24003KT P6SM BKN060 FM270800 24004KT 6SM BR VCSH SCT015 OVC030 PROB30 2710/2715 4SM -SHRA BR SCT006 OVC012 FM271500 24006KT 6SM BR BKN015